Time;durP1;ratioP1;P1;durP2;ratioP2;P2;SDS_P1;SDS_P2;PMS_P1;PMS_P2;Temp;Humidity;BMP_temperature;BMP_pressure;BME280_temperature;BME280_humidity;BME280_pressure;Samples;Min_cycle;Max_cycle;Signal;HPM_P1;HPM_P2
2023/06/28 00:01:52;;;;;;;8.00;2.50;;;;;;;16.91;100.00;101445.69;4956564;28;20590;-73
2023/06/28 00:04:18;;;;;;;13.18;2.70;;;;;;;16.87;100.00;101444.97;4944611;28;20517;-72
2023/06/28 00:06:45;;;;;;;12.63;2.45;;;;;;;16.83;100.00;101445.09;4950639;28;20055;-72
2023/06/28 00:09:12;;;;;;;7.85;2.35;;;;;;;16.79;100.00;101446.41;4952846;28;20145;-71
2023/06/28 00:11:38;;;;;;;6.95;2.40;;;;;;;16.75;100.00;101448.53;4959087;28;20473;-73
2023/06/28 00:14:05;;;;;;;5.93;2.35;;;;;;;16.72;100.00;101447.41;4949621;28;20525;-72
2023/06/28 00:16:31;;;;;;;7.43;2.45;;;;;;;16.66;100.00;101453.97;4953290;28;20075;-72
2023/06/28 00:19:00;;;;;;;5.40;2.20;;;;;;;16.62;100.00;101450.47;4949284;28;20142;-72
2023/06/28 00:21:27;;;;;;;5.47;2.30;;;;;;;16.59;100.00;101452.16;4957402;28;20054;-73
2023/06/28 00:23:54;;;;;;;5.05;2.30;;;;;;;16.58;100.00;101444.94;4949655;28;20126;-72
2023/06/28 00:26:21;;;;;;;6.53;2.38;;;;;;;16.56;100.00;101450.22;4951167;28;20443;-73
2023/06/28 00:28:48;;;;;;;8.40;2.70;;;;;;;16.52;100.00;101443.94;4948297;28;20051;-72
2023/06/28 00:31:15;;;;;;;9.48;2.50;;;;;;;16.47;100.00;101449.28;4954256;28;20050;-72
2023/06/28 00:33:41;;;;;;;9.57;2.58;;;;;;;16.46;100.00;101453.31;4945894;28;20057;-70
2023/06/28 00:36:08;;;;;;;12.52;3.38;;;;;;;16.39;100.00;101448.69;4945018;28;20051;-69
2023/06/28 00:38:37;;;;;;;6.30;2.55;;;;;;;16.26;100.00;101452.63;4946101;28;20083;-72
2023/06/28 00:41:04;;;;;;;9.07;2.92;;;;;;;16.20;100.00;101443.91;4952718;28;20070;-71
2023/06/28 00:43:30;;;;;;;8.05;2.70;;;;;;;16.21;100.00;101453.13;4953721;28;20091;-71
2023/06/28 00:45:57;;;;;;;9.30;2.85;;;;;;;16.23;100.00;101450.66;4944804;28;20089;-71
2023/06/28 00:48:23;;;;;;;10.27;2.70;;;;;;;16.24;100.00;101452.25;4957738;28;20577;-72
2023/06/28 00:50:50;;;;;;;8.27;2.75;;;;;;;16.27;100.00;101460.59;4951809;28;20074;-72
2023/06/28 00:53:17;;;;;;;9.25;3.00;;;;;;;16.30;100.00;101462.53;4952039;28;20082;-69
2023/06/28 00:55:44;;;;;;;10.27;2.70;;;;;;;16.31;100.00;101466.91;4952625;28;20083;-72
2023/06/28 00:58:10;;;;;;;9.98;3.05;;;;;;;16.31;100.00;101457.72;4949134;28;20106;-73
2023/06/28 01:00:37;;;;;;;10.27;2.83;;;;;;;16.29;100.00;101458.16;4979840;28;20066;-72
2023/06/28 01:03:04;;;;;;;9.32;2.65;;;;;;;16.27;100.00;101449.38;4944029;28;20106;-72
2023/06/28 01:05:31;;;;;;;8.77;3.25;;;;;;;16.23;100.00;101457.06;4958697;28;20058;-72
2023/06/28 01:07:58;;;;;;;8.77;2.90;;;;;;;16.22;100.00;101454.69;4956698;28;20135;-73
2023/06/28 01:10:25;;;;;;;8.35;2.53;;;;;;;16.15;100.00;101466.09;4953257;28;20074;-73
2023/06/28 01:12:52;;;;;;;13.98;4.05;;;;;;;16.14;100.00;101465.28;4957567;28;20052;-72
2023/06/28 01:15:20;;;;;;;10.55;3.00;;;;;;;16.07;100.00;101470.31;4951148;28;20117;-72
2023/06/28 01:17:47;;;;;;;8.32;3.00;;;;;;;15.90;100.00;101472.28;4952276;28;20615;-73
2023/06/28 01:20:14;;;;;;;10.80;3.20;;;;;;;15.70;100.00;101473.59;4958551;28;20057;-70
2023/06/28 01:22:43;;;;;;;12.65;3.38;;;;;;;15.59;100.00;101464.63;4956297;28;20077;-72
2023/06/28 01:25:10;;;;;;;12.73;3.78;;;;;;;15.55;100.00;101470.28;4949170;28;20102;-71
2023/06/28 01:27:44;;;;;;;12.63;3.25;;;;;;;15.50;100.00;101467.22;4962862;28;20054;-72
2023/06/28 01:30:14;;;;;;;9.82;3.22;;;;;;;15.30;100.00;101464.41;4957005;28;20086;-72
2023/06/28 01:32:43;;;;;;;10.05;3.08;;;;;;;15.28;100.00;101466.84;4962843;28;20044;-72
2023/06/28 01:35:14;;;;;;;12.45;2.83;;;;;;;15.33;100.00;101468.34;4946601;28;20059;-72
2023/06/28 01:37:42;;;;;;;7.88;3.80;;;;;;;15.42;100.00;101471.41;4942601;28;20536;-71
2023/06/28 01:40:10;;;;;;;15.50;3.08;;;;;;;15.48;100.00;101464.03;4951446;28;20094;-72
2023/06/28 01:42:38;;;;;;;9.27;3.20;;;;;;;15.56;100.00;101471.88;4943564;28;20081;-73
2023/06/28 01:45:06;;;;;;;6.82;2.80;;;;;;;15.62;100.00;101474.94;4948854;28;20050;-73
2023/06/28 01:47:32;;;;;;;12.60;3.42;;;;;;;15.60;100.00;101469.78;4957431;28;20496;-72
2023/06/28 01:49:59;;;;;;;7.05;2.33;;;;;;;15.65;100.00;101480.47;4962817;28;20055;-73
2023/06/28 01:52:26;;;;;;;9.75;3.10;;;;;;;15.64;100.00;101478.91;4947902;28;20059;-73
2023/06/28 01:54:52;;;;;;;7.03;2.72;;;;;;;15.60;100.00;101467.00;4948713;28;20062;-73
2023/06/28 01:57:19;;;;;;;7.65;2.88;;;;;;;15.57;100.00;101467.06;4957248;28;20090;-73
2023/06/28 01:59:45;;;;;;;13.05;3.30;;;;;;;15.58;100.00;101477.84;4968189;28;20117;-73
2023/06/28 02:02:12;;;;;;;6.13;2.70;;;;;;;15.59;100.00;101485.00;4950375;28;20055;-73
2023/06/28 02:04:39;;;;;;;6.05;2.85;;;;;;;15.60;100.00;101481.00;4967678;28;20725;-73
2023/06/28 02:07:06;;;;;;;9.25;3.10;;;;;;;15.58;100.00;101474.22;4963539;28;20055;-70
2023/06/28 02:09:32;;;;;;;12.45;4.10;;;;;;;15.52;100.00;101485.16;4970350;28;20063;-73
2023/06/28 02:11:59;;;;;;;7.32;2.67;;;;;;;15.54;100.00;101485.53;4947021;28;20130;-72
2023/06/28 02:14:25;;;;;;;11.13;3.20;;;;;;;15.53;100.00;101480.38;4950130;28;20270;-72
2023/06/28 02:16:52;;;;;;;5.95;2.78;;;;;;;15.56;100.00;101485.09;4953837;28;20047;-73
2023/06/28 02:19:19;;;;;;;8.00;2.83;;;;;;;15.57;100.00;101476.28;4965420;28;20086;-73
2023/06/28 02:21:45;;;;;;;8.35;2.78;;;;;;;15.56;100.00;101488.69;4953697;28;20126;-71
2023/06/28 02:24:12;;;;;;;8.75;3.13;;;;;;;15.55;100.00;101475.91;4959750;28;20587;-73
2023/06/28 02:26:38;;;;;;;10.70;3.45;;;;;;;15.50;100.00;101470.03;4951869;28;20082;-73
2023/06/28 02:29:05;;;;;;;8.85;3.05;;;;;;;15.45;100.00;101470.50;4964463;28;20490;-72
2023/06/28 02:31:31;;;;;;;8.43;2.85;;;;;;;15.40;100.00;101466.22;4952915;28;20083;-72
2023/06/28 02:33:58;;;;;;;11.52;3.15;;;;;;;15.32;100.00;101458.38;4950868;28;20133;-73
2023/06/28 02:36:24;;;;;;;7.68;3.17;;;;;;;15.32;100.00;101458.38;4956772;28;20138;-73
2023/06/28 02:38:51;;;;;;;8.90;3.38;;;;;;;15.25;100.00;101459.28;4960817;28;20047;-73
2023/06/28 02:41:17;;;;;;;12.82;3.58;;;;;;;15.16;100.00;101455.50;4961278;28;20113;-73
2023/06/28 02:43:44;;;;;;;12.20;3.47;;;;;;;15.17;100.00;101463.47;4950556;28;20102;-72
2023/06/28 02:46:10;;;;;;;7.07;3.22;;;;;;;15.20;100.00;101459.03;4966818;28;20055;-73
2023/06/28 02:48:37;;;;;;;8.95;3.20;;;;;;;15.21;100.00;101469.78;4966628;28;20058;-71
2023/06/28 02:51:03;;;;;;;8.63;3.28;;;;;;;15.18;100.00;101465.06;4963411;28;20055;-73
2023/06/28 02:53:30;;;;;;;7.65;3.13;;;;;;;15.12;100.00;101466.75;4951032;28;20426;-71
2023/06/28 02:55:57;;;;;;;6.85;3.10;;;;;;;15.12;100.00;101466.75;4969420;28;20101;-73
2023/06/28 02:58:23;;;;;;;8.00;2.97;;;;;;;15.12;100.00;101471.59;4960262;28;20106;-72
2023/06/28 03:00:50;;;;;;;7.22;3.20;;;;;;;15.11;100.00;101476.41;4955169;28;20082;-72
2023/06/28 03:03:17;;;;;;;8.20;2.88;;;;;;;15.10;100.00;101474.03;4963386;28;20137;-71
2023/06/28 03:05:43;;;;;;;9.13;2.80;;;;;;;15.06;100.00;101467.72;4962634;28;20051;-73
2023/06/28 03:08:10;;;;;;;6.72;2.95;;;;;;;15.03;100.00;101472.16;4966546;28;20115;-72
2023/06/28 03:10:36;;;;;;;5.03;2.70;;;;;;;15.02;100.00;101470.56;4956993;28;20545;-72
2023/06/28 03:13:03;;;;;;;11.90;3.30;;;;;;;15.03;100.00;101470.13;4948864;28;20130;-74
2023/06/28 03:15:30;;;;;;;13.07;3.53;;;;;;;15.03;100.00;101472.94;4957436;28;20062;-72
2023/06/28 03:17:56;;;;;;;11.68;3.55;;;;;;;14.93;100.00;101465.53;4950666;28;20047;-72
2023/06/28 03:20:23;;;;;;;9.45;3.63;;;;;;;14.95;100.00;101457.50;4951165;28;20059;-72
2023/06/28 03:22:49;;;;;;;11.90;3.25;;;;;;;14.99;100.00;101463.06;4959915;28;20082;-73
2023/06/28 03:25:16;;;;;;;9.80;2.85;;;;;;;14.98;100.00;101467.06;4957756;28;20075;-72
2023/06/28 03:27:43;;;;;;;8.50;2.75;;;;;;;15.01;100.00;101466.19;4948675;28;20055;-72
2023/06/28 03:30:10;;;;;;;10.48;3.22;;;;;;;15.05;100.00;101466.13;4950804;28;20125;-72
2023/06/28 03:32:37;;;;;;;8.43;3.17;;;;;;;15.07;100.00;101458.88;4945589;28;20047;-71
2023/06/28 03:35:04;;;;;;;9.43;2.90;;;;;;;15.02;100.00;101448.16;4966668;28;20062;-72
2023/06/28 03:37:30;;;;;;;5.82;3.00;;;;;;;15.06;100.00;101456.50;4948360;28;20046;-72
2023/06/28 03:39:57;;;;;;;8.40;3.53;;;;;;;15.04;100.00;101454.13;4952190;28;20062;-72
2023/06/28 03:42:23;;;;;;;10.82;3.60;;;;;;;15.05;100.00;101452.13;4969733;28;20133;-72
2023/06/28 03:44:50;;;;;;;14.82;4.05;;;;;;;15.00;100.00;101447.81;4969489;28;20410;-73
2023/06/28 03:47:16;;;;;;;10.25;3.50;;;;;;;14.98;100.00;101456.66;4954365;28;20126;-71
2023/06/28 03:49:45;;;;;;;8.90;3.22;;;;;;;14.99;100.00;101451.84;4950732;28;20408;-72
2023/06/28 03:52:11;;;;;;;14.30;3.80;;;;;;;15.00;100.00;101450.63;4951663;28;20195;-72
2023/06/28 03:54:38;;;;;;;7.93;3.13;;;;;;;14.96;100.00;101441.50;4969817;28;20160;-72
2023/06/28 03:57:05;;;;;;;10.63;3.55;;;;;;;15.01;100.00;101443.78;4960539;28;20043;-72
2023/06/28 03:59:32;;;;;;;7.05;2.97;;;;;;;14.99;100.00;101444.22;4964927;28;20086;-70
2023/06/28 04:01:58;;;;;;;14.80;4.13;;;;;;;15.03;100.00;101446.97;4955572;28;20131;-69
2023/06/28 04:04:25;;;;;;;13.43;3.25;;;;;;;15.07;100.00;101456.06;4963743;28;20051;-73
2023/06/28 04:06:51;;;;;;;8.32;3.33;;;;;;;15.05;100.00;101450.09;4951233;28;20055;-71
2023/06/28 04:09:18;;;;;;;9.07;3.20;;;;;;;15.11;100.00;101451.19;4946994;28;20098;-68
2023/06/28 04:11:45;;;;;;;7.50;3.17;;;;;;;15.13;100.00;101451.56;4957564;28;20505;-72
2023/06/28 04:14:11;;;;;;;8.38;3.17;;;;;;;15.13;100.00;101450.75;4948263;28;20141;-71
2023/06/28 04:16:38;;;;;;;10.45;3.80;;;;;;;15.02;100.00;101447.38;4953529;28;20502;-72
2023/06/28 04:19:05;;;;;;;12.52;4.93;;;;;;;14.98;100.00;101444.66;4960820;28;20046;-72
2023/06/28 04:21:32;;;;;;;12.05;4.10;;;;;;;14.92;100.00;101443.56;4962640;28;20114;-72
2023/06/28 04:24:00;;;;;;;11.60;3.92;;;;;;;14.95;100.00;101451.09;4967888;28;20580;-72
2023/06/28 04:26:27;;;;;;;8.98;3.97;;;;;;;15.04;100.00;101454.13;4957409;28;20183;-70
2023/06/28 04:28:53;;;;;;;10.85;3.95;;;;;;;15.10;100.00;101446.81;4947598;28;20617;-72
2023/06/28 04:31:20;;;;;;;9.65;4.07;;;;;;;15.19;100.00;101449.81;4948596;28;20094;-71
2023/06/28 04:33:46;;;;;;;13.68;4.13;;;;;;;15.24;100.00;101457.72;4950110;28;20065;-69
2023/06/28 04:36:13;;;;;;;9.38;3.70;;;;;;;15.26;100.00;101449.66;4961023;28;20062;-72
2023/06/28 04:38:41;;;;;;;11.45;3.72;;;;;;;15.32;100.00;101459.16;4953593;28;20055;-71
2023/06/28 04:41:07;;;;;;;10.35;3.70;;;;;;;15.39;100.00;101456.22;4957309;28;20069;-73
2023/06/28 04:43:40;;;;;;;14.38;4.93;;;;;;;15.40;100.00;101452.22;4968123;28;20050;-72
2023/06/28 04:46:11;;;;;;;9.65;3.80;;;;;;;15.47;100.00;101454.88;4961494;28;20055;-70
2023/06/28 04:48:42;;;;;;;8.07;3.80;;;;;;;15.60;100.00;101460.59;4952741;28;20063;-71
2023/06/28 04:51:09;;;;;;;10.30;4.03;;;;;;;15.50;100.00;101459.63;4945756;29;20517;-72
2023/06/28 04:53:36;;;;;;;14.45;4.63;;;;;;;15.40;100.00;101457.81;4952669;28;20110;-69
2023/06/28 04:56:02;;;;;;;15.05;4.70;;;;;;;15.41;100.00;101453.00;4978624;28;20116;-72
2023/06/28 04:58:29;;;;;;;11.07;3.70;;;;;;;15.44;100.00;101455.72;4956365;28;20119;-72
2023/06/28 05:00:56;;;;;;;11.35;4.07;;;;;;;15.43;100.00;101456.97;4970316;28;20050;-70
2023/06/28 05:03:27;;;;;;;12.88;4.15;;;;;;;15.47;100.00;101460.47;4972714;28;20054;-70
2023/06/28 05:05:55;;;;;;;9.07;3.80;;;;;;;15.47;100.00;101454.88;4961584;28;20051;-73
2023/06/28 05:08:22;;;;;;;11.93;4.10;;;;;;;15.43;100.00;101456.97;4953237;28;20047;-70
2023/06/28 05:10:49;;;;;;;15.20;4.57;;;;;;;15.38;100.00;101454.66;4961896;28;20050;-73
2023/06/28 05:13:15;;;;;;;12.05;4.45;;;;;;;15.44;100.00;101460.53;4960930;28;20110;-72
2023/06/28 05:15:42;;;;;;;14.32;4.47;;;;;;;15.47;100.00;101454.88;4945734;28;20053;-72
2023/06/28 05:18:09;;;;;;;14.00;4.40;;;;;;;15.36;100.00;101457.09;4954781;28;20038;-72
2023/06/28 05:20:36;;;;;;;15.25;4.97;;;;;;;15.51;100.00;101455.56;4972457;28;20074;-72
2023/06/28 05:23:12;;;;;;;11.10;4.30;;;;;;;15.46;100.00;101450.47;4961773;28;20051;-72
2023/06/28 05:25:40;;;;;;;14.38;4.72;;;;;;;15.60;100.00;101447.38;4948696;28;20065;-72
2023/06/28 05:28:08;;;;;;;13.68;4.75;;;;;;;15.75;100.00;101451.41;4956272;28;20101;-70
2023/06/28 05:30:35;;;;;;;18.70;4.47;;;;;;;15.82;100.00;101447.66;4959773;28;20684;-71
2023/06/28 05:33:02;;;;;;;14.57;4.53;;;;;;;15.80;100.00;101447.31;4960123;28;20585;-72
2023/06/28 05:35:30;;;;;;;13.40;4.85;;;;;;;15.89;100.00;101450.28;4946209;28;20055;-71
2023/06/28 05:37:58;;;;;;;14.75;5.22;;;;;;;15.82;100.00;101450.47;4960827;28;20121;-73
2023/06/28 05:40:26;;;;;;;15.85;5.38;;;;;;;16.01;100.00;101444.81;4950953;28;20051;-72
2023/06/28 05:42:53;;;;;;;12.50;4.57;;;;;;;16.01;100.00;101450.41;4961690;28;20138;-71
2023/06/28 05:45:21;;;;;;;17.13;4.53;;;;;;;15.95;100.00;101448.56;4958730;28;20079;-71
2023/06/28 05:47:50;;;;;;;10.52;4.32;;;;;;;15.96;100.00;101450.13;4947304;28;20573;-72
2023/06/28 05:50:17;;;;;;;12.10;4.43;;;;;;;15.95;100.00;101434.53;4960594;28;20051;-72
2023/06/28 05:52:47;;;;;;;12.10;3.88;;;;;;;15.88;100.00;101437.50;4957232;28;20074;-72
2023/06/28 05:55:13;;;;;;;10.27;3.38;;;;;;;15.88;100.00;101441.09;4949269;28;20122;-70
2023/06/28 05:57:40;;;;;;;11.00;3.70;;;;;;;15.85;100.00;101439.16;4960279;28;20561;-72
2023/06/28 06:00:09;;;;;;;15.07;4.25;;;;;;;16.02;100.00;101439.97;4948154;28;20093;-72
2023/06/28 06:02:36;;;;;;;9.52;3.35;;;;;;;15.98;100.00;101447.69;4962593;28;20114;-70
2023/06/28 06:05:03;;;;;;;11.20;3.17;;;;;;;16.05;100.00;101450.31;4958353;28;20090;-73
2023/06/28 06:07:30;;;;;;;10.27;3.25;;;;;;;16.10;100.00;101447.75;4948870;28;20118;-72
2023/06/28 06:09:57;;;;;;;10.48;3.92;;;;;;;16.16;100.00;101448.81;4951178;28;20692;-72
2023/06/28 06:12:24;;;;;;;21.02;4.28;;;;;;;16.24;100.00;101449.44;4946990;28;20134;-73
2023/06/28 06:14:50;;;;;;;14.48;4.28;;;;;;;16.27;100.00;101440.97;4949637;28;20075;-73
2023/06/28 06:17:18;;;;;;;11.00;3.78;;;;;;;16.27;100.00;101443.75;4956367;28;20137;-71
2023/06/28 06:19:44;;;;;;;14.90;4.10;;;;;;;16.26;100.00;101433.78;4962830;28;20053;-71
2023/06/28 06:22:11;;;;;;;12.50;3.65;;;;;;;15.99;100.00;101436.03;4943936;28;20110;-69
2023/06/28 06:24:38;;;;;;;11.55;3.30;;;;;;;16.14;100.00;101439.28;4940867;28;20110;-70
2023/06/28 06:27:05;;;;;;;17.38;4.07;;;;;;;16.22;100.00;101449.09;4958025;28;20081;-71
2023/06/28 06:29:31;;;;;;;18.00;3.78;;;;;;;16.12;100.00;101448.13;4949455;28;20052;-70
2023/06/28 06:31:58;;;;;;;15.00;4.10;;;;;;;16.27;100.00;101452.19;4943421;28;20537;-68
2023/06/28 06:34:25;;;;;;;12.00;3.67;;;;;;;16.25;100.00;101446.22;4954946;28;20141;-69
2023/06/28 06:36:54;;;;;;;11.95;3.42;;;;;;;16.27;100.00;101445.81;4958959;28;20070;-69
2023/06/28 06:39:21;;;;;;;15.70;4.68;;;;;;;16.18;100.00;101446.38;4950926;28;20070;-69
2023/06/28 06:41:47;;;;;;;8.95;2.83;;;;;;;16.16;100.00;101451.63;4970843;28;20129;-71
2023/06/28 06:44:14;;;;;;;9.27;3.00;;;;;;;16.36;100.00;101445.94;4948262;28;20552;-70
2023/06/28 06:46:40;;;;;;;9.98;3.17;;;;;;;16.32;100.00;101442.44;4945434;28;20106;-69
2023/06/28 06:49:07;;;;;;;13.10;3.45;;;;;;;16.26;100.00;101444.19;4945628;28;20046;-70
2023/06/28 06:51:34;;;;;;;14.02;3.97;;;;;;;16.42;100.00;101453.41;4948298;28;20528;-70
2023/06/28 06:54:00;;;;;;;12.30;4.05;;;;;;;16.42;100.00;101450.59;4942875;28;20047;-69
2023/06/28 06:56:27;;;;;;;12.57;3.50;;;;;;;16.43;100.00;101446.56;4943990;28;20058;-69
2023/06/28 06:58:53;;;;;;;17.55;3.88;;;;;;;16.45;100.00;101446.94;4945209;28;20084;-72
2023/06/28 07:01:20;;;;;;;8.05;3.55;;;;;;;16.44;100.00;101458.59;4959156;28;20082;-70
2023/06/28 07:03:47;;;;;;;10.60;3.13;;;;;;;16.49;100.00;101464.47;4952217;28;20078;-69
2023/06/28 07:06:14;;;;;;;13.75;3.65;;;;;;;16.57;100.00;101467.84;4949153;28;20110;-69
2023/06/28 07:08:41;;;;;;;14.35;4.13;;;;;;;16.73;100.00;101457.41;4957956;28;20059;-68
2023/06/28 07:11:07;;;;;;;9.48;3.53;;;;;;;16.72;100.00;101455.03;4970378;28;20138;-69
2023/06/28 07:13:34;;;;;;;12.77;3.60;;;;;;;16.71;100.00;101459.06;4969987;28;20516;-70
2023/06/28 07:16:00;;;;;;;9.93;2.97;;;;;;;16.59;100.00;101457.78;4958384;28;20501;-69
2023/06/28 07:18:27;;;;;;;12.82;3.20;;;;;;;16.62;100.00;101450.47;4955218;28;20098;-69
2023/06/28 07:20:53;;;;;;;6.55;2.05;;;;;;;16.64;100.00;101456.47;4951339;28;20139;-75
2023/06/28 07:23:20;;;;;;;12.57;3.05;;;;;;;16.64;100.00;101453.66;4946872;28;20479;-74
2023/06/28 07:25:47;;;;;;;12.35;3.50;;;;;;;16.68;100.00;101460.72;4939474;28;20052;-73
2023/06/28 07:28:13;;;;;;;13.30;3.20;;;;;;;16.62;100.00;101473.75;4945386;28;20083;-71
2023/06/28 07:30:58;;;;;;;16.88;3.80;;;;;;;16.62;100.00;101475.75;4946259;28;20055;-71
2023/06/28 07:33:25;;;;;;;15.70;4.85;;;;;;;16.72;100.00;101471.88;4953069;28;20078;-72
2023/06/28 07:35:52;;;;;;;4.60;1.00;;;;;;;16.50;100.00;101480.06;4958693;28;20057;-70
2023/06/28 07:38:20;;;;;;;13.77;2.28;;;;;;;16.53;100.00;101475.56;4948445;28;20526;-72
2023/06/28 07:40:47;;;;;;;15.98;3.40;;;;;;;16.49;100.00;101470.06;4960614;28;20054;-70
2023/06/28 07:43:16;;;;;;;14.25;3.92;;;;;;;16.53;100.00;101469.97;4951683;28;20091;-69
2023/06/28 07:45:42;;;;;;;11.55;3.95;;;;;;;16.64;100.00;101476.88;4944616;28;20107;-70
2023/06/28 07:48:10;;;;;;;11.25;3.55;;;;;;;16.64;100.00;101473.31;4956119;28;20106;-71
2023/06/28 07:50:37;;;;;;;8.88;3.47;;;;;;;16.69;100.00;101481.19;4943237;28;20171;-70
2023/06/28 07:53:04;;;;;;;14.30;3.90;;;;;;;16.65;100.00;101481.25;4959993;28;20054;-71
2023/06/28 07:55:31;;;;;;;15.20;4.20;;;;;;;16.55;100.00;101473.94;4956922;28;20116;-70
2023/06/28 07:57:57;;;;;;;14.05;4.38;;;;;;;16.55;100.00;101481.56;4956274;28;20142;-72
2023/06/28 08:00:25;;;;;;;17.00;5.20;;;;;;;16.60;100.00;101475.38;4962303;28;20078;-70
2023/06/28 08:02:52;;;;;;;16.55;4.50;;;;;;;16.71;100.00;101471.06;4953043;28;20051;-69
2023/06/28 08:05:19;;;;;;;12.27;2.63;;;;;;;16.68;100.00;101477.56;4955618;28;20065;-68
2023/06/28 08:07:47;;;;;;;6.10;1.67;;;;;;;16.77;100.00;101477.75;4938497;28;20052;-68
2023/06/28 08:10:13;;;;;;;14.75;4.63;;;;;;;17.01;100.00;101483.91;4945147;28;20077;-70
2023/06/28 08:12:40;;;;;;;12.18;4.15;;;;;;;16.94;100.00;101484.88;4939670;28;20126;-67
2023/06/28 08:15:07;;;;;;;13.43;4.32;;;;;;;16.83;100.00;101484.41;4953945;28;20512;-67
2023/06/28 08:17:34;;;;;;;15.35;6.20;;;;;;;17.07;100.00;101491.34;4955950;28;20063;-70
2023/06/28 08:20:00;;;;;;;7.53;2.67;;;;;;;16.92;100.00;101486.56;4964416;28;20050;-69
2023/06/28 08:22:27;;;;;;;4.95;1.98;;;;;;;16.94;100.00;101484.09;4956291;28;20158;-70
2023/06/28 08:24:54;;;;;;;4.55;1.35;;;;;;;17.03;100.00;101495.50;4946903;28;20078;-70
2023/06/28 08:27:20;;;;;;;3.55;1.05;;;;;;;17.10;100.00;101487.66;4962966;28;20046;-70
2023/06/28 08:29:47;;;;;;;1.42;1.00;;;;;;;16.81;100.00;101484.03;4964442;28;20091;-70
2023/06/28 08:32:13;;;;;;;1.77;1.17;;;;;;;16.86;100.00;101485.53;4955056;28;20763;-74
2023/06/28 08:34:40;;;;;;;7.93;2.00;;;;;;;16.93;100.00;101488.13;4960160;28;20136;-73
2023/06/28 08:37:08;;;;;;;4.20;1.65;;;;;;;16.97;100.00;101484.00;4957005;28;20062;-73
2023/06/28 08:39:38;;;;;;;8.82;2.70;;;;;;;16.87;100.00;101485.09;4948426;28;20051;-73
2023/06/28 08:42:05;;;;;;;10.90;2.60;;;;;;;16.77;100.00;101494.59;4935209;28;20106;-69
2023/06/28 08:44:33;;;;;;;9.18;2.35;;;;;;;16.68;100.00;101488.03;4943579;29;20051;-69
2023/06/28 08:47:01;;;;;;;7.95;2.33;;;;;;;16.73;100.00;101490.28;4933931;28;20489;-69
2023/06/28 08:49:30;;;;;;;4.32;1.75;;;;;;;16.65;100.00;101489.69;4943036;28;20058;-70
2023/06/28 08:51:57;;;;;;;5.07;2.20;;;;;;;16.73;100.00;101493.09;4923942;28;20421;-69
2023/06/28 08:54:28;;;;;;;14.40;3.85;;;;;;;16.95;100.00;101488.50;4938003;28;20118;-69
2023/06/28 08:56:56;;;;;;;12.70;3.78;;;;;;;16.93;100.00;101494.56;4946535;28;20066;-69
2023/06/28 08:59:37;;;;;;;3.47;1.38;;;;;;;16.72;100.00;101491.53;4944554;28;20051;-69
2023/06/28 09:02:04;;;;;;;12.40;3.88;;;;;;;16.97;100.00;101480.41;4947224;28;20162;-68
2023/06/28 09:04:31;;;;;;;11.55;2.97;;;;;;;17.05;100.00;101481.81;4948320;28;20053;-70
2023/06/28 09:06:59;;;;;;;8.32;3.22;;;;;;;17.14;100.00;101481.97;4954159;28;20110;-66
2023/06/28 09:09:28;;;;;;;9.43;3.00;;;;;;;17.25;100.00;101488.09;4942276;28;20043;-69
2023/06/28 09:11:55;;;;;;;12.57;4.28;;;;;;;17.53;100.00;101480.81;4941065;28;20498;-68
2023/06/28 09:14:21;;;;;;;7.30;2.88;;;;;;;17.78;100.00;101481.66;4935037;28;20110;-70
2023/06/28 09:16:48;;;;;;;12.95;3.58;;;;;;;17.75;100.00;101481.78;4936734;28;20505;-67
2023/06/28 09:19:14;;;;;;;15.07;4.43;;;;;;;17.99;100.00;101486.63;4955670;28;20043;-69
2023/06/28 09:21:41;;;;;;;13.98;3.78;;;;;;;17.90;100.00;101494.16;4943492;28;20059;-69
2023/06/28 09:24:12;;;;;;;18.98;4.35;;;;;;;17.77;100.00;101476.47;4950013;28;20065;-68
2023/06/28 09:26:45;;;;;;;1.90;1.42;;;;;;;17.65;100.00;101488.50;4951392;28;20055;-69
2023/06/28 09:29:15;;;;;;;11.48;4.18;;;;;;;17.87;100.00;101484.59;4937941;28;20070;-69
2023/06/28 09:31:44;;;;;;;14.55;3.45;;;;;;;17.90;100.00;101478.06;4950410;28;20142;-69
2023/06/28 09:34:11;;;;;;;10.57;2.95;;;;;;;18.03;100.00;101492.97;4965016;28;20612;-68
2023/06/28 09:36:37;;;;;;;12.57;3.33;;;;;;;18.04;100.00;101482.47;4968120;28;20051;-71
2023/06/28 09:39:05;;;;;;;11.07;3.80;;;;;;;18.13;100.00;101486.19;4968869;28;20142;-69
2023/06/28 09:41:42;;;;;;;6.95;3.28;;;;;;;17.91;100.00;101484.47;4959219;28;20465;-70
2023/06/28 09:44:10;;;;;;;10.85;3.95;;;;;;;17.96;100.00;101483.94;4966398;28;20043;-69
2023/06/28 09:46:45;;;;;;;10.02;3.55;;;;;;;17.84;100.00;101485.47;4959884;28;20950;-70
2023/06/28 09:49:23;;;;;;;7.32;2.05;;;;;;;17.80;100.00;101484.00;4950112;28;20129;-69
2023/06/28 09:51:58;;;;;;;12.50;3.55;;;;;;;17.72;100.00;101488.28;4938782;28;20110;-69
2023/06/28 09:54:28;;;;;;;;;;;;;;;17.69;100.00;101486.38;4948880;28;20098;-68
2023/06/28 09:56:55;;;;;;;5.00;2.17;;;;;;;17.56;100.00;101479.94;4953087;28;20409;-70
2023/06/28 09:59:23;;;;;;;12.52;4.20;;;;;;;17.80;100.00;101484.81;4956988;28;20105;-68
2023/06/28 10:02:05;;;;;;;1.67;0.93;;;;;;;17.61;100.00;101485.03;4947566;28;20106;-69
2023/06/28 10:04:33;;;;;;;13.00;3.33;;;;;;;17.63;100.00;101480.53;4945679;28;20055;-69
2023/06/28 10:07:02;;;;;;;15.85;4.53;;;;;;;17.70;100.00;101485.94;4949187;28;20106;-68
2023/06/28 10:09:35;;;;;;;14.05;4.55;;;;;;;17.68;100.00;101485.56;4946984;28;20429;-69
2023/06/28 10:12:05;;;;;;;10.27;3.47;;;;;;;17.67;100.00;101484.00;4943143;28;21683;-69
2023/06/28 10:14:38;;;;;;;12.38;4.30;;;;;;;17.97;100.00;101485.50;4952449;28;20047;-68
2023/06/28 10:17:05;;;;;;;11.98;3.60;;;;;;;17.98;100.00;101485.06;4946519;28;20043;-68
2023/06/28 10:19:32;;;;;;;16.05;4.90;;;;;;;18.06;100.00;101486.41;4939414;28;20075;-69
2023/06/28 10:21:59;;;;;;;15.88;5.03;;;;;;;18.15;100.00;101486.53;4960194;28;20521;-69
2023/06/28 10:24:31;;;;;;;15.82;5.35;;;;;;;18.15;100.00;101485.72;4958792;28;20397;-70
2023/06/28 10:27:00;;;;;;;22.23;6.20;;;;;;;18.29;100.00;101480.44;4961676;28;20179;-69
2023/06/28 10:29:27;;;;;;;20.58;5.97;;;;;;;18.41;100.00;101478.84;4960825;28;20050;-71
2023/06/28 10:31:55;;;;;;;17.00;6.80;;;;;;;18.37;100.00;101490.22;4955735;28;20078;-69
2023/06/28 10:34:22;;;;;;;17.60;6.25;;;;;;;18.27;100.00;101490.56;4947720;28;20469;-69
2023/06/28 10:36:49;;;;;;;18.40;6.97;;;;;;;18.39;100.00;101484.16;4943965;28;20187;-69
2023/06/28 10:39:16;;;;;;;25.02;11.32;;;;;;;18.20;100.00;101491.59;4953824;28;20339;-68
2023/06/28 10:41:43;;;;;;;30.80;11.95;;;;;;;18.30;100.00;101496.09;4952048;28;20217;-69
2023/06/28 10:44:10;;;;;;;23.95;10.00;;;;;;;18.30;100.00;101496.09;4957016;28;20047;-69
2023/06/28 10:46:37;;;;;;;21.92;9.93;;;;;;;18.34;100.00;101493.16;4948408;28;20519;-69
2023/06/28 10:49:03;;;;;;;21.45;9.18;;;;;;;18.32;100.00;101492.81;4945170;28;20047;-71
2023/06/28 10:51:32;;;;;;;23.75;9.30;;;;;;;18.26;100.00;101501.03;4955462;28;20074;-70
2023/06/28 10:54:13;;;;;;;10.73;4.07;;;;;;;18.00;100.00;101495.88;4949016;28;20079;-69
2023/06/28 10:56:50;;;;;;;19.25;6.82;;;;;;;18.02;100.00;101496.22;4947325;28;20489;-71
2023/06/28 10:59:17;;;;;;;15.82;6.88;;;;;;;17.76;100.00;101488.97;4945665;28;20054;-71
2023/06/28 11:01:51;;;;;;;26.25;10.35;;;;;;;17.95;100.00;101493.63;4947566;28;20150;-69
2023/06/28 11:04:25;;;;;;;20.88;8.40;;;;;;;17.90;100.00;101494.94;4948452;28;20070;-70
2023/06/28 11:07:06;;;;;;;20.73;7.40;;;;;;;17.86;100.00;101487.84;4953498;28;20047;-68
2023/06/28 11:09:34;;;;;;;22.13;9.13;;;;;;;17.97;100.00;101488.31;4944312;28;20197;-71
2023/06/28 11:12:01;;;;;;;20.23;6.85;;;;;;;17.77;100.00;101477.28;4956725;28;20063;-69
2023/06/28 11:14:30;;;;;;;14.95;6.57;;;;;;;17.81;100.00;101479.97;4942382;29;20078;-71